Laurel, MT

10:47 PM MDT on May 28, 2015 (GMT -0600)
Clear Creek Rd, Roberts, MT | | Change Station
CLOSE
Current Station
Personal Weather Station
Location: Roberts, MT
Elevation: 4455 ft
Nearby Weather Stations

Elev 4455 ft 45.38 °N, 109.14 °W | Updated 6 seconds ago

Rain
Rain
50.0 °F
Feels Like 50.0 °F
N
2.7
Wind Variable Wind from West
Gusts 4.9 mph

Today
High -- | Low -- °F
--% Chance of Precip.
Yesterday
High -- | Low -- °F
Precip. -- in
5:33 AM 8:52 PM
Waxing Gibbous, 81% visible
Pressure 30.20 in
Visibility 10.0 miles
Clouds Scattered Clouds 1900 ft
Overcast 5500 ft
Dew Point 48 °F
Humidity 92%
Rainfall 0.37 in
Snow Depth Not available.
UV 0.0 out of 12
Pollen 6.60 out of 12
Air Quality Not available.
Flu Activity Sporadic
SPECI KBIL 290428Z 02013G18KT 10SM -RA SCT019 OVC055 13/10 A3020 RMK AO2 P0000 T01280100

More Conditions Fewer Conditions

Pressure 30.20 in
Visibility 10.0 miles
Clouds Scattered Clouds 1900 ft
Overcast 5500 ft
Dew Point 48 °F
Humidity 92%
Rainfall 0.37 in
Snow Depth Not available.
UV 0.0 out of 12
Pollen 6.60 out of 12
Air Quality Not available.
Flu Activity Sporadic
SPECI KBIL 290428Z 02013G18KT 10SM -RA SCT019 OVC055 13/10 A3020 RMK AO2 P0000 T01280100

More Conditions Fewer Conditions

10-Day Weather Forecast

Almanac

Astronomy

May. 28, 2015 Rise Set
Actual Time
Civil Twilight
Nautical Twilight
Astronomical Twilight
Moon
Length of Visible Light
Length of Day
Tomorrow will be .
, % of the Moon is Illuminated

Today's Extremes

State Highs State Lows

Community

WunderPhotos

Upload Photos

1,825,209 photos uploaded!

WunderBlogs® & News

Nearby

Air Quality

  Air Quality AQ Index Pollutant
Not available.

Snow Depth

Station Depth Elevation

Earthquake Activity

City Distance Mag. Time & Date
Minimum magnitude displayed is 2.5.

Coastal Water Temperatures

Place Temperature

Stations

Nearby Weather Stations

Station Location Temp. Windchill Dew Point Humidity Wind Precip. Elev Updated Type